sensor_id;sensor_type;location;lat;lon;timestamp;P1;durP1;ratioP1;P2;durP2;ratioP2
23015;SDS011;11674;52.428;13.584;2023-02-02T00:03:38;18.90;;;2.88;;
23015;SDS011;11674;52.428;13.584;2023-02-02T00:08:45;16.90;;;2.85;;
23015;SDS011;11674;52.428;13.584;2023-02-02T00:13:52;17.17;;;3.15;;
23015;SDS011;11674;52.428;13.584;2023-02-02T00:19:00;16.48;;;2.80;;
23015;SDS011;11674;52.428;13.584;2023-02-02T00:24:10;18.55;;;3.03;;
23015;SDS011;11674;52.428;13.584;2023-02-02T00:29:21;11.65;;;2.78;;
23015;SDS011;11674;52.428;13.584;2023-02-02T00:34:29;11.93;;;3.50;;
23015;SDS011;11674;52.428;13.584;2023-02-02T00:39:37;15.98;;;3.38;;
23015;SDS011;11674;52.428;13.584;2023-02-02T00:44:44;16.23;;;2.60;;
23015;SDS011;11674;52.428;13.584;2023-02-02T00:49:51;15.93;;;2.97;;
23015;SDS011;11674;52.428;13.584;2023-02-02T00:54:58;13.55;;;3.28;;
23015;SDS011;11674;52.428;13.584;2023-02-02T01:00:06;12.63;;;2.03;;
23015;SDS011;11674;52.428;13.584;2023-02-02T01:05:14;15.82;;;2.85;;
23015;SDS011;11674;52.428;13.584;2023-02-02T01:10:22;14.05;;;2.35;;
23015;SDS011;11674;52.428;13.584;2023-02-02T01:15:29;15.77;;;2.40;;
23015;SDS011;11674;52.428;13.584;2023-02-02T01:20:36;12.88;;;2.10;;
23015;SDS011;11674;52.428;13.584;2023-02-02T01:25:44;13.35;;;2.30;;
23015;SDS011;11674;52.428;13.584;2023-02-02T01:30:51;14.20;;;2.28;;
23015;SDS011;11674;52.428;13.584;2023-02-02T01:36:01;21.00;;;2.95;;
23015;SDS011;11674;52.428;13.584;2023-02-02T01:41:14;12.50;;;2.53;;
23015;SDS011;11674;52.428;13.584;2023-02-02T01:51:43;17.00;;;2.67;;
23015;SDS011;11674;52.428;13.584;2023-02-02T01:56:58;14.10;;;2.50;;
23015;SDS011;11674;52.428;13.584;2023-02-02T02:02:18;9.27;;;1.85;;
23015;SDS011;11674;52.428;13.584;2023-02-02T02:07:25;11.27;;;2.72;;
23015;SDS011;11674;52.428;13.584;2023-02-02T02:12:32;15.85;;;2.30;;
23015;SDS011;11674;52.428;13.584;2023-02-02T02:17:58;14.43;;;2.50;;
23015;SDS011;11674;52.428;13.584;2023-02-02T02:23:22;12.63;;;2.30;;
23015;SDS011;11674;52.428;13.584;2023-02-02T02:28:58;12.30;;;2.83;;
23015;SDS011;11674;52.428;13.584;2023-02-02T02:34:09;15.52;;;2.33;;
23015;SDS011;11674;52.428;13.584;2023-02-02T02:44:50;18.55;;;2.75;;
23015;SDS011;11674;52.428;13.584;2023-02-02T02:50:02;16.02;;;2.67;;
23015;SDS011;11674;52.428;13.584;2023-02-02T02:55:10;15.95;;;2.35;;
23015;SDS011;11674;52.428;13.584;2023-02-02T03:00:28;11.68;;;1.85;;
23015;SDS011;11674;52.428;13.584;2023-02-02T03:05:51;13.68;;;2.45;;
23015;SDS011;11674;52.428;13.584;2023-02-02T03:11:06;13.45;;;2.50;;
23015;SDS011;11674;52.428;13.584;2023-02-02T03:16:15;12.05;;;2.20;;
23015;SDS011;11674;52.428;13.584;2023-02-02T03:21:22;14.15;;;2.70;;
23015;SDS011;11674;52.428;13.584;2023-02-02T03:26:29;11.98;;;2.00;;
23015;SDS011;11674;52.428;13.584;2023-02-02T03:31:36;8.55;;;1.30;;
23015;SDS011;11674;52.428;13.584;2023-02-02T03:36:43;10.02;;;1.55;;
23015;SDS011;11674;52.428;13.584;2023-02-02T03:41:50;9.10;;;1.83;;
23015;SDS011;11674;52.428;13.584;2023-02-02T03:46:57;10.43;;;1.70;;
23015;SDS011;11674;52.428;13.584;2023-02-02T03:52:04;11.07;;;1.60;;
23015;SDS011;11674;52.428;13.584;2023-02-02T03:57:11;11.60;;;1.90;;
23015;SDS011;11674;52.428;13.584;2023-02-02T04:02:18;9.95;;;2.30;;
23015;SDS011;11674;52.428;13.584;2023-02-02T04:07:25;7.88;;;1.60;;
23015;SDS011;11674;52.428;13.584;2023-02-02T04:12:32;10.15;;;1.85;;
23015;SDS011;11674;52.428;13.584;2023-02-02T04:17:39;10.90;;;1.63;;
23015;SDS011;11674;52.428;13.584;2023-02-02T04:22:46;5.70;;;1.48;;
23015;SDS011;11674;52.428;13.584;2023-02-02T04:27:53;5.88;;;1.75;;
23015;SDS011;11674;52.428;13.584;2023-02-02T04:33:00;6.30;;;1.48;;
23015;SDS011;11674;52.428;13.584;2023-02-02T04:38:07;7.97;;;1.75;;
23015;SDS011;11674;52.428;13.584;2023-02-02T04:43:14;7.25;;;1.58;;
23015;SDS011;11674;52.428;13.584;2023-02-02T04:48:21;12.13;;;1.77;;
23015;SDS011;11674;52.428;13.584;2023-02-02T04:53:28;7.45;;;1.40;;
23015;SDS011;11674;52.428;13.584;2023-02-02T04:58:35;20.50;;;1.83;;
23015;SDS011;11674;52.428;13.584;2023-02-02T05:03:42;12.85;;;2.03;;
23015;SDS011;11674;52.428;13.584;2023-02-02T05:08:49;6.07;;;1.77;;
23015;SDS011;11674;52.428;13.584;2023-02-02T05:13:56;12.15;;;1.88;;
23015;SDS011;11674;52.428;13.584;2023-02-02T05:19:03;12.20;;;2.05;;
23015;SDS011;11674;52.428;13.584;2023-02-02T05:24:17;8.80;;;1.70;;
23015;SDS011;11674;52.428;13.584;2023-02-02T05:29:27;7.85;;;1.60;;
23015;SDS011;11674;52.428;13.584;2023-02-02T05:34:36;8.23;;;1.65;;
23015;SDS011;11674;52.428;13.584;2023-02-02T05:39:43;7.15;;;1.55;;
23015;SDS011;11674;52.428;13.584;2023-02-02T05:44:50;8.48;;;1.92;;
23015;SDS011;11674;52.428;13.584;2023-02-02T05:49:57;6.75;;;1.60;;
23015;SDS011;11674;52.428;13.584;2023-02-02T05:55:04;13.68;;;1.98;;
23015;SDS011;11674;52.428;13.584;2023-02-02T06:00:11;11.13;;;1.58;;
23015;SDS011;11674;52.428;13.584;2023-02-02T06:05:18;7.60;;;1.65;;
23015;SDS011;11674;52.428;13.584;2023-02-02T06:10:25;6.97;;;1.60;;
23015;SDS011;11674;52.428;13.584;2023-02-02T06:15:32;14.63;;;2.10;;
23015;SDS011;11674;52.428;13.584;2023-02-02T06:20:39;17.17;;;2.38;;
23015;SDS011;11674;52.428;13.584;2023-02-02T06:25:46;9.77;;;1.85;;
23015;SDS011;11674;52.428;13.584;2023-02-02T06:30:53;12.90;;;2.22;;
23015;SDS011;11674;52.428;13.584;2023-02-02T06:36:01;9.20;;;1.88;;
23015;SDS011;11674;52.428;13.584;2023-02-02T06:41:09;8.60;;;1.65;;
23015;SDS011;11674;52.428;13.584;2023-02-02T06:46:16;13.98;;;1.88;;
23015;SDS011;11674;52.428;13.584;2023-02-02T06:51:23;14.43;;;1.90;;
23015;SDS011;11674;52.428;13.584;2023-02-02T06:56:30;14.05;;;2.05;;
23015;SDS011;11674;52.428;13.584;2023-02-02T07:01:37;7.93;;;1.50;;
23015;SDS011;11674;52.428;13.584;2023-02-02T07:06:44;11.98;;;2.40;;
23015;SDS011;11674;52.428;13.584;2023-02-02T07:11:51;8.77;;;1.58;;
23015;SDS011;11674;52.428;13.584;2023-02-02T07:16:58;10.07;;;2.15;;
23015;SDS011;11674;52.428;13.584;2023-02-02T07:22:05;8.82;;;1.67;;
23015;SDS011;11674;52.428;13.584;2023-02-02T07:27:12;8.63;;;1.42;;
23015;SDS011;11674;52.428;13.584;2023-02-02T07:32:19;5.25;;;1.65;;
23015;SDS011;11674;52.428;13.584;2023-02-02T07:37:26;10.68;;;2.00;;
23015;SDS011;11674;52.428;13.584;2023-02-02T07:42:33;8.35;;;1.83;;
23015;SDS011;11674;52.428;13.584;2023-02-02T07:47:40;10.57;;;1.85;;
23015;SDS011;11674;52.428;13.584;2023-02-02T07:52:47;14.07;;;2.60;;
23015;SDS011;11674;52.428;13.584;2023-02-02T07:57:54;10.40;;;1.90;;
23015;SDS011;11674;52.428;13.584;2023-02-02T08:03:01;8.98;;;1.90;;
23015;SDS011;11674;52.428;13.584;2023-02-02T08:08:08;11.20;;;2.10;;
23015;SDS011;11674;52.428;13.584;2023-02-02T08:13:15;10.48;;;1.77;;
23015;SDS011;11674;52.428;13.584;2023-02-02T08:18:22;10.02;;;2.33;;
23015;SDS011;11674;52.428;13.584;2023-02-02T08:23:29;13.40;;;2.58;;
23015;SDS011;11674;52.428;13.584;2023-02-02T08:28:37;17.08;;;2.80;;
23015;SDS011;11674;52.428;13.584;2023-02-02T08:33:44;17.33;;;2.40;;
23015;SDS011;11674;52.428;13.584;2023-02-02T08:38:51;19.85;;;4.57;;
23015;SDS011;11674;52.428;13.584;2023-02-02T08:43:58;8.75;;;2.17;;
23015;SDS011;11674;52.428;13.584;2023-02-02T08:49:05;13.40;;;2.42;;
23015;SDS011;11674;52.428;13.584;2023-02-02T08:54:14;8.93;;;2.13;;
23015;SDS011;11674;52.428;13.584;2023-02-02T08:59:21;12.82;;;1.83;;
23015;SDS011;11674;52.428;13.584;2023-02-02T09:04:28;10.73;;;1.85;;
23015;SDS011;11674;52.428;13.584;2023-02-02T09:09:35;10.65;;;2.42;;
23015;SDS011;11674;52.428;13.584;2023-02-02T09:14:42;8.85;;;1.98;;
23015;SDS011;11674;52.428;13.584;2023-02-02T09:19:49;10.13;;;2.00;;
23015;SDS011;11674;52.428;13.584;2023-02-02T09:24:56;9.80;;;1.83;;
23015;SDS011;11674;52.428;13.584;2023-02-02T09:30:03;12.80;;;2.20;;
23015;SDS011;11674;52.428;13.584;2023-02-02T09:35:10;10.40;;;1.63;;
23015;SDS011;11674;52.428;13.584;2023-02-02T09:40:17;4.45;;;1.70;;
23015;SDS011;11674;52.428;13.584;2023-02-02T09:45:26;12.63;;;1.90;;
23015;SDS011;11674;52.428;13.584;2023-02-02T09:50:44;10.13;;;2.00;;
23015;SDS011;11674;52.428;13.584;2023-02-02T09:55:56;9.13;;;2.13;;
23015;SDS011;11674;52.428;13.584;2023-02-02T10:01:13;10.18;;;2.10;;
23015;SDS011;11674;52.428;13.584;2023-02-02T10:23:03;8.57;;;2.03;;
23015;SDS011;11674;52.428;13.584;2023-02-02T10:28:17;11.45;;;2.08;;
23015;SDS011;11674;52.428;13.584;2023-02-02T10:33:32;9.50;;;1.70;;
23015;SDS011;11674;52.428;13.584;2023-02-02T10:38:55;9.55;;;1.90;;
23015;SDS011;11674;52.428;13.584;2023-02-02T10:44:35;11.27;;;2.30;;
23015;SDS011;11674;52.428;13.584;2023-02-02T10:49:44;11.00;;;1.87;;
23015;SDS011;11674;52.428;13.584;2023-02-02T11:05:24;10.18;;;2.05;;
23015;SDS011;11674;52.428;13.584;2023-02-02T11:10:34;4.35;;;1.48;;
23015;SDS011;11674;52.428;13.584;2023-02-02T11:15:41;14.52;;;2.00;;
23015;SDS011;11674;52.428;13.584;2023-02-02T11:20:48;7.45;;;1.70;;
23015;SDS011;11674;52.428;13.584;2023-02-02T11:25:57;8.05;;;1.75;;
23015;SDS011;11674;52.428;13.584;2023-02-02T11:31:05;11.35;;;2.50;;
23015;SDS011;11674;52.428;13.584;2023-02-02T11:36:19;9.73;;;1.70;;
23015;SDS011;11674;52.428;13.584;2023-02-02T11:41:26;8.57;;;1.75;;
23015;SDS011;11674;52.428;13.584;2023-02-02T11:46:43;8.35;;;1.85;;
23015;SDS011;11674;52.428;13.584;2023-02-02T11:51:59;6.88;;;1.30;;
23015;SDS011;11674;52.428;13.584;2023-02-02T11:57:08;6.45;;;1.90;;
23015;SDS011;11674;52.428;13.584;2023-02-02T12:07:27;10.15;;;2.00;;
23015;SDS011;11674;52.428;13.584;2023-02-02T12:12:44;9.77;;;2.25;;
23015;SDS011;11674;52.428;13.584;2023-02-02T12:29:43;8.70;;;1.63;;
23015;SDS011;11674;52.428;13.584;2023-02-02T12:56:56;6.88;;;1.80;;
23015;SDS011;11674;52.428;13.584;2023-02-02T13:13:37;8.43;;;1.80;;
23015;SDS011;11674;52.428;13.584;2023-02-02T13:18:57;7.67;;;1.77;;
23015;SDS011;11674;52.428;13.584;2023-02-02T13:24:18;5.82;;;1.48;;
23015;SDS011;11674;52.428;13.584;2023-02-02T13:34:46;10.73;;;1.17;;
23015;SDS011;11674;52.428;13.584;2023-02-02T13:40:04;11.40;;;1.60;;
23015;SDS011;11674;52.428;13.584;2023-02-02T13:50:58;4.57;;;1.27;;
23015;SDS011;11674;52.428;13.584;2023-02-02T14:01:45;3.78;;;1.00;;
23015;SDS011;11674;52.428;13.584;2023-02-02T14:06:59;4.50;;;1.03;;
23015;SDS011;11674;52.428;13.584;2023-02-02T14:12:09;5.35;;;0.75;;
23015;SDS011;11674;52.428;13.584;2023-02-02T14:22:40;3.13;;;1.10;;
23015;SDS011;11674;52.428;13.584;2023-02-02T14:27:54;7.25;;;1.40;;
23015;SDS011;11674;52.428;13.584;2023-02-02T14:38:44;3.78;;;0.90;;
23015;SDS011;11674;52.428;13.584;2023-02-02T14:44:02;3.42;;;1.25;;
23015;SDS011;11674;52.428;13.584;2023-02-02T14:49:11;2.40;;;1.15;;
23015;SDS011;11674;52.428;13.584;2023-02-02T14:54:26;3.35;;;0.85;;
23015;SDS011;11674;52.428;13.584;2023-02-02T14:59:39;2.25;;;0.85;;
23015;SDS011;11674;52.428;13.584;2023-02-02T15:05:00;3.00;;;1.00;;
23015;SDS011;11674;52.428;13.584;2023-02-02T15:11:17;5.63;;;1.40;;
23015;SDS011;11674;52.428;13.584;2023-02-02T15:16:18;4.55;;;1.30;;
23015;SDS011;11674;52.428;13.584;2023-02-02T15:21:30;2.17;;;1.20;;
23015;SDS011;11674;52.428;13.584;2023-02-02T15:26:43;6.85;;;1.50;;
23015;SDS011;11674;52.428;13.584;2023-02-02T15:31:52;4.18;;;1.60;;
23015;SDS011;11674;52.428;13.584;2023-02-02T15:37:01;2.17;;;1.08;;
23015;SDS011;11674;52.428;13.584;2023-02-02T15:42:18;4.40;;;1.05;;
23015;SDS011;11674;52.428;13.584;2023-02-02T15:47:49;5.93;;;1.60;;
23015;SDS011;11674;52.428;13.584;2023-02-02T15:52:56;5.18;;;1.40;;
23015;SDS011;11674;52.428;13.584;2023-02-02T15:58:19;3.80;;;1.67;;
23015;SDS011;11674;52.428;13.584;2023-02-02T16:03:30;1.80;;;0.90;;
23015;SDS011;11674;52.428;13.584;2023-02-02T16:08:41;4.65;;;1.38;;
23015;SDS011;11674;52.428;13.584;2023-02-02T16:13:59;2.17;;;1.00;;
23015;SDS011;11674;52.428;13.584;2023-02-02T16:24:25;5.93;;;1.70;;
23015;SDS011;11674;52.428;13.584;2023-02-02T16:29:33;2.78;;;1.23;;
23015;SDS011;11674;52.428;13.584;2023-02-02T16:34:41;9.57;;;1.70;;
23015;SDS011;11674;52.428;13.584;2023-02-02T16:39:50;4.28;;;1.52;;
23015;SDS011;11674;52.428;13.584;2023-02-02T16:44:57;3.20;;;1.25;;
23015;SDS011;11674;52.428;13.584;2023-02-02T16:50:16;5.22;;;1.40;;
23015;SDS011;11674;52.428;13.584;2023-02-02T16:55:32;4.25;;;1.70;;
23015;SDS011;11674;52.428;13.584;2023-02-02T17:00:40;6.53;;;2.28;;
23015;SDS011;11674;52.428;13.584;2023-02-02T17:06:02;5.70;;;2.03;;
23015;SDS011;11674;52.428;13.584;2023-02-02T17:16:25;4.93;;;2.20;;
23015;SDS011;11674;52.428;13.584;2023-02-02T17:21:32;8.43;;;2.03;;
23015;SDS011;11674;52.428;13.584;2023-02-02T17:26:39;5.45;;;2.17;;
23015;SDS011;11674;52.428;13.584;2023-02-02T17:31:46;6.28;;;2.40;;
23015;SDS011;11674;52.428;13.584;2023-02-02T17:36:54;5.25;;;2.15;;
23015;SDS011;11674;52.428;13.584;2023-02-02T17:42:01;8.15;;;1.98;;
23015;SDS011;11674;52.428;13.584;2023-02-02T17:47:10;8.55;;;2.72;;
23015;SDS011;11674;52.428;13.584;2023-02-02T17:52:18;8.48;;;3.97;;
23015;SDS011;11674;52.428;13.584;2023-02-02T17:57:26;6.97;;;2.65;;
23015;SDS011;11674;52.428;13.584;2023-02-02T18:02:32;8.43;;;2.30;;
23015;SDS011;11674;52.428;13.584;2023-02-02T18:07:40;5.78;;;2.22;;
23015;SDS011;11674;52.428;13.584;2023-02-02T18:12:46;10.02;;;2.40;;
23015;SDS011;11674;52.428;13.584;2023-02-02T18:17:54;7.43;;;2.40;;
23015;SDS011;11674;52.428;13.584;2023-02-02T18:23:02;7.32;;;2.42;;
23015;SDS011;11674;52.428;13.584;2023-02-02T18:28:09;21.90;;;7.07;;
23015;SDS011;11674;52.428;13.584;2023-02-02T18:33:16;9.30;;;2.65;;
23015;SDS011;11674;52.428;13.584;2023-02-02T18:38:22;4.20;;;2.17;;
23015;SDS011;11674;52.428;13.584;2023-02-02T18:43:30;6.45;;;2.65;;
23015;SDS011;11674;52.428;13.584;2023-02-02T18:48:37;12.35;;;2.55;;
23015;SDS011;11674;52.428;13.584;2023-02-02T18:53:44;7.22;;;2.75;;
23015;SDS011;11674;52.428;13.584;2023-02-02T18:58:52;5.22;;;3.22;;
23015;SDS011;11674;52.428;13.584;2023-02-02T19:03:59;12.77;;;4.00;;
23015;SDS011;11674;52.428;13.584;2023-02-02T19:09:06;6.75;;;4.38;;
23015;SDS011;11674;52.428;13.584;2023-02-02T19:14:17;10.77;;;3.83;;
23015;SDS011;11674;52.428;13.584;2023-02-02T19:19:27;7.90;;;3.55;;
23015;SDS011;11674;52.428;13.584;2023-02-02T19:24:39;12.25;;;5.97;;
23015;SDS011;11674;52.428;13.584;2023-02-02T19:29:47;9.30;;;5.00;;
23015;SDS011;11674;52.428;13.584;2023-02-02T19:34:56;10.93;;;4.70;;
23015;SDS011;11674;52.428;13.584;2023-02-02T19:45:33;12.13;;;5.25;;
23015;SDS011;11674;52.428;13.584;2023-02-02T19:50:41;13.07;;;5.00;;
23015;SDS011;11674;52.428;13.584;2023-02-02T19:55:48;11.68;;;5.30;;
23015;SDS011;11674;52.428;13.584;2023-02-02T20:00:56;12.07;;;5.20;;
23015;SDS011;11674;52.428;13.584;2023-02-02T20:06:03;10.88;;;4.60;;
23015;SDS011;11674;52.428;13.584;2023-02-02T20:16:34;15.00;;;6.60;;
23015;SDS011;11674;52.428;13.584;2023-02-02T20:21:45;10.45;;;5.53;;
23015;SDS011;11674;52.428;13.584;2023-02-02T20:26:55;11.52;;;6.10;;
23015;SDS011;11674;52.428;13.584;2023-02-02T20:32:04;13.48;;;6.07;;
23015;SDS011;11674;52.428;13.584;2023-02-02T20:42:31;10.65;;;5.10;;
23015;SDS011;11674;52.428;13.584;2023-02-02T20:47:38;15.70;;;5.78;;
23015;SDS011;11674;52.428;13.584;2023-02-02T20:52:45;13.07;;;5.40;;
23015;SDS011;11674;52.428;13.584;2023-02-02T20:57:52;11.88;;;5.68;;
23015;SDS011;11674;52.428;13.584;2023-02-02T21:02:59;11.55;;;5.95;;
23015;SDS011;11674;52.428;13.584;2023-02-02T21:08:06;16.30;;;5.68;;
23015;SDS011;11674;52.428;13.584;2023-02-02T21:13:13;14.25;;;5.30;;
23015;SDS011;11674;52.428;13.584;2023-02-02T21:18:20;11.93;;;5.30;;
23015;SDS011;11674;52.428;13.584;2023-02-02T21:23:27;10.45;;;5.15;;
23015;SDS011;11674;52.428;13.584;2023-02-02T21:28:34;14.15;;;5.60;;
23015;SDS011;11674;52.428;13.584;2023-02-02T21:33:41;8.32;;;4.10;;
23015;SDS011;11674;52.428;13.584;2023-02-02T21:38:49;6.88;;;3.88;;
23015;SDS011;11674;52.428;13.584;2023-02-02T21:43:57;11.73;;;4.70;;
23015;SDS011;11674;52.428;13.584;2023-02-02T21:49:08;10.38;;;4.45;;
23015;SDS011;11674;52.428;13.584;2023-02-02T21:54:26;9.52;;;4.07;;
23015;SDS011;11674;52.428;13.584;2023-02-02T21:59:41;9.43;;;4.25;;
23015;SDS011;11674;52.428;13.584;2023-02-02T22:04:48;7.93;;;4.00;;
23015;SDS011;11674;52.428;13.584;2023-02-02T22:09:55;7.93;;;4.47;;
23015;SDS011;11674;52.428;13.584;2023-02-02T22:15:04;12.00;;;5.45;;
23015;SDS011;11674;52.428;13.584;2023-02-02T22:20:29;14.40;;;4.93;;
23015;SDS011;11674;52.428;13.584;2023-02-02T22:25:46;7.80;;;4.22;;
23015;SDS011;11674;52.428;13.584;2023-02-02T22:30:55;12.50;;;5.05;;
23015;SDS011;11674;52.428;13.584;2023-02-02T22:36:02;8.30;;;4.60;;
23015;SDS011;11674;52.428;13.584;2023-02-02T22:41:09;13.23;;;4.60;;
23015;SDS011;11674;52.428;13.584;2023-02-02T22:46:16;8.35;;;4.90;;
23015;SDS011;11674;52.428;13.584;2023-02-02T22:51:23;12.32;;;4.18;;
23015;SDS011;11674;52.428;13.584;2023-02-02T22:56:30;11.13;;;4.32;;
23015;SDS011;11674;52.428;13.584;2023-02-02T23:01:37;13.50;;;4.28;;
23015;SDS011;11674;52.428;13.584;2023-02-02T23:06:44;9.77;;;4.28;;
23015;SDS011;11674;52.428;13.584;2023-02-02T23:11:51;11.93;;;4.57;;
23015;SDS011;11674;52.428;13.584;2023-02-02T23:16:58;7.38;;;4.28;;
23015;SDS011;11674;52.428;13.584;2023-02-02T23:22:05;11.85;;;4.70;;
23015;SDS011;11674;52.428;13.584;2023-02-02T23:27:12;7.90;;;3.60;;
23015;SDS011;11674;52.428;13.584;2023-02-02T23:32:19;9.63;;;3.97;;
23015;SDS011;11674;52.428;13.584;2023-02-02T23:37:26;8.00;;;3.67;;
23015;SDS011;11674;52.428;13.584;2023-02-02T23:42:33;10.82;;;3.85;;
23015;SDS011;11674;52.428;13.584;2023-02-02T23:47:40;9.32;;;3.67;;
23015;SDS011;11674;52.428;13.584;2023-02-02T23:52:47;8.90;;;2.95;;
23015;SDS011;11674;52.428;13.584;2023-02-02T23:57:54;22.17;;;7.65;;
